createdAt,value
2022-07-27T00:01:10.577Z,21.50
2022-07-27T00:03:38.601Z,21.50
2022-07-27T00:06:05.833Z,21.50
2022-07-27T00:08:32.929Z,21.50
2022-07-27T00:11:00.033Z,21.50
2022-07-27T00:13:27.099Z,21.50
2022-07-27T00:15:54.477Z,21.40
2022-07-27T00:18:22.022Z,21.40
2022-07-27T00:20:49.318Z,21.30
2022-07-27T00:23:16.368Z,21.30
2022-07-27T00:25:43.533Z,21.20
2022-07-27T00:28:10.705Z,21.20
2022-07-27T00:30:37.667Z,21.10
2022-07-27T00:33:06.063Z,21.10
2022-07-27T00:35:33.381Z,21.00
2022-07-27T00:38:03.270Z,21.00
2022-07-27T00:40:30.542Z,20.90
2022-07-27T00:42:57.737Z,20.90
2022-07-27T00:45:24.830Z,20.70
2022-07-27T00:47:55.055Z,20.70
2022-07-27T00:50:22.416Z,20.60
2022-07-27T00:52:49.901Z,20.60
2022-07-27T00:55:17.144Z,20.50
2022-07-27T00:57:58.278Z,20.50
2022-07-27T01:00:28.678Z,20.40
2022-07-27T01:02:57.393Z,20.30
2022-07-27T01:05:35.870Z,20.20
2022-07-27T01:08:05.285Z,20.20
2022-07-27T01:10:32.497Z,20.10
2022-07-27T01:13:00.046Z,20.00
2022-07-27T01:15:27.476Z,19.90
2022-07-27T01:17:54.489Z,19.90
2022-07-27T01:20:21.853Z,19.80
2022-07-27T01:22:48.904Z,19.70
2022-07-27T01:25:16.197Z,19.70
2022-07-27T01:27:43.219Z,19.60
2022-07-27T01:30:26.882Z,19.60
2022-07-27T01:33:05.891Z,19.60
2022-07-27T01:35:33.780Z,19.50
2022-07-27T01:38:01.150Z,19.40
2022-07-27T01:40:30.038Z,19.50
2022-07-27T01:42:57.651Z,19.50
2022-07-27T01:45:24.968Z,19.50
2022-07-27T01:47:51.867Z,19.40
2022-07-27T01:50:19.010Z,19.50
2022-07-27T01:52:46.038Z,19.40
2022-07-27T01:55:13.208Z,19.50
2022-07-27T01:57:40.421Z,19.50
2022-07-27T02:00:12.116Z,19.50
2022-07-27T02:02:42.051Z,19.50
2022-07-27T02:05:13.419Z,19.40
2022-07-27T02:07:41.918Z,19.40
2022-07-27T02:10:10.335Z,19.40
2022-07-27T02:12:38.275Z,19.40
2022-07-27T02:15:16.255Z,19.40
2022-07-27T02:17:44.920Z,19.40
2022-07-27T02:20:14.857Z,19.40
2022-07-27T02:22:42.504Z,19.40
2022-07-27T02:25:12.599Z,19.40
2022-07-27T02:27:42.065Z,19.40
2022-07-27T02:30:11.693Z,19.40
2022-07-27T02:32:40.952Z,19.30
2022-07-27T02:35:19.587Z,19.30
2022-07-27T02:37:49.118Z,19.30
2022-07-27T02:40:17.872Z,19.30
2022-07-27T02:42:47.617Z,19.30
2022-07-27T02:45:17.805Z,19.30
2022-07-27T02:47:45.542Z,19.20
2022-07-27T02:50:13.334Z,19.20
2022-07-27T02:52:40.512Z,19.20
2022-07-27T02:55:08.620Z,19.20
2022-07-27T02:57:37.880Z,19.20
2022-07-27T03:00:12.842Z,19.20
2022-07-27T03:02:40.805Z,19.10
2022-07-27T03:05:09.801Z,19.10
2022-07-27T03:07:37.744Z,19.00
2022-07-27T03:10:05.548Z,19.00
2022-07-27T03:12:32.556Z,19.00
2022-07-27T03:14:59.718Z,18.90
2022-07-27T03:17:27.046Z,18.90
2022-07-27T03:19:54.129Z,18.80
2022-07-27T03:22:21.591Z,18.80
2022-07-27T03:24:48.703Z,18.70
2022-07-27T03:27:16.481Z,18.60
2022-07-27T03:29:43.545Z,18.60
2022-07-27T03:32:10.740Z,18.60
2022-07-27T03:34:37.712Z,18.50
2022-07-27T03:37:04.684Z,18.50
2022-07-27T03:39:31.667Z,18.50
2022-07-27T03:41:58.782Z,18.50
2022-07-27T03:44:26.032Z,18.50
2022-07-27T03:46:53.044Z,18.50
2022-07-27T03:49:20.219Z,18.50
2022-07-27T03:51:47.350Z,18.50
2022-07-27T03:54:14.421Z,18.60
2022-07-27T03:56:41.629Z,18.50
2022-07-27T03:59:09.200Z,18.60
2022-07-27T04:01:36.426Z,18.50
2022-07-27T04:04:03.643Z,18.60
2022-07-27T04:06:30.754Z,18.60
2022-07-27T04:09:08.059Z,18.70
2022-07-27T04:11:37.687Z,18.70
2022-07-27T04:14:13.007Z,18.70
2022-07-27T04:16:41.635Z,18.70
2022-07-27T04:19:09.425Z,18.80
2022-07-27T04:21:36.765Z,18.80
2022-07-27T04:24:05.418Z,18.90
2022-07-27T04:26:32.924Z,18.80
2022-07-27T04:29:00.018Z,18.90
2022-07-27T04:31:26.971Z,18.90
2022-07-27T04:33:54.224Z,18.90
2022-07-27T04:36:21.359Z,18.90
2022-07-27T04:38:48.385Z,19.00
2022-07-27T04:41:15.400Z,19.00
2022-07-27T04:43:42.787Z,19.00
2022-07-27T04:46:14.995Z,19.10
2022-07-27T04:48:49.341Z,19.10
2022-07-27T04:51:18.177Z,19.20
2022-07-27T04:53:52.799Z,19.20
2022-07-27T04:56:26.506Z,19.30
2022-07-27T04:58:54.437Z,19.40
2022-07-27T05:01:23.030Z,19.40
2022-07-27T05:03:50.301Z,19.50
2022-07-27T05:06:17.401Z,19.60
2022-07-27T05:08:44.708Z,19.70
2022-07-27T05:11:11.847Z,19.70
2022-07-27T05:13:42.030Z,19.90
2022-07-27T05:16:10.869Z,19.90
2022-07-27T05:18:39.779Z,20.00
2022-07-27T05:21:08.245Z,20.10
2022-07-27T05:23:36.015Z,20.10
2022-07-27T05:26:03.291Z,20.20
2022-07-27T05:28:31.032Z,20.30
2022-07-27T05:30:58.519Z,20.30
2022-07-27T05:33:25.556Z,20.40
2022-07-27T05:35:52.758Z,20.40
2022-07-27T05:38:20.148Z,20.50
2022-07-27T05:40:47.776Z,20.60
2022-07-27T05:43:14.975Z,20.60
2022-07-27T05:45:42.327Z,20.70
2022-07-27T05:48:09.642Z,20.80
2022-07-27T05:50:37.218Z,20.90
2022-07-27T05:53:04.328Z,20.90
2022-07-27T05:55:31.378Z,21.00
2022-07-27T05:57:58.451Z,21.10
2022-07-27T06:00:27.119Z,21.10
2022-07-27T06:02:54.682Z,21.20
2022-07-27T06:05:21.893Z,21.30
2022-07-27T06:08:08.782Z,21.40
2022-07-27T06:10:39.560Z,21.50
2022-07-27T06:13:09.351Z,21.60
2022-07-27T06:15:38.242Z,21.70
2022-07-27T06:18:07.186Z,21.80
2022-07-27T06:20:34.224Z,22.00
2022-07-27T06:23:07.814Z,22.10
2022-07-27T06:25:36.430Z,22.20
2022-07-27T06:28:07.083Z,22.40
2022-07-27T06:30:34.519Z,22.50
2022-07-27T06:33:06.662Z,22.50
2022-07-27T06:35:34.492Z,22.60
2022-07-27T06:38:03.282Z,22.70
2022-07-27T06:40:32.027Z,22.80
2022-07-27T06:43:00.246Z,22.90
2022-07-27T06:45:27.669Z,22.90
2022-07-27T06:47:54.809Z,23.00
2022-07-27T06:50:22.781Z,23.10
2022-07-27T06:52:49.946Z,23.10
2022-07-27T06:55:17.641Z,23.20
2022-07-27T06:57:46.359Z,23.20
2022-07-27T07:00:14.431Z,23.20
2022-07-27T07:02:58.750Z,23.30
2022-07-27T07:05:26.266Z,23.40
2022-07-27T07:07:54.085Z,23.30
2022-07-27T07:10:23.789Z,23.40
2022-07-27T07:12:55.615Z,23.40
2022-07-27T07:15:26.817Z,23.40
2022-07-27T07:17:54.617Z,23.50
2022-07-27T07:20:22.683Z,23.50
2022-07-27T07:22:50.181Z,23.50
2022-07-27T07:25:17.908Z,23.50
2022-07-27T07:27:44.912Z,23.60
2022-07-27T07:30:13.102Z,23.60
2022-07-27T07:32:40.747Z,23.60
2022-07-27T07:35:08.597Z,23.70
2022-07-27T07:37:36.114Z,23.80
2022-07-27T07:40:40.100Z,23.80
2022-07-27T07:43:01.166Z,23.90
2022-07-27T07:45:31.589Z,23.90
2022-07-27T07:47:59.529Z,24.00
2022-07-27T07:50:27.232Z,24.10
2022-07-27T07:52:55.126Z,24.10
2022-07-27T07:55:24.706Z,24.20
2022-07-27T07:57:51.938Z,24.30
2022-07-27T08:00:20.878Z,24.30
2022-07-27T08:02:54.425Z,24.40
2022-07-27T08:05:22.684Z,24.40
2022-07-27T08:07:51.550Z,24.50
2022-07-27T08:10:21.276Z,24.60
2022-07-27T08:12:54.595Z,24.60
2022-07-27T08:15:35.111Z,24.70
2022-07-27T08:18:06.593Z,24.80
2022-07-27T08:20:34.662Z,24.90
2022-07-27T08:23:02.878Z,25.00
2022-07-27T08:25:29.956Z,25.10
2022-07-27T08:27:57.762Z,25.10
2022-07-27T08:30:25.109Z,25.20
2022-07-27T08:32:59.785Z,25.30
2022-07-27T08:35:28.868Z,25.40
2022-07-27T08:37:55.901Z,25.40
2022-07-27T08:40:41.814Z,25.50
2022-07-27T08:43:12.009Z,25.50
2022-07-27T08:45:41.970Z,25.60
2022-07-27T08:48:14.332Z,25.70
2022-07-27T08:50:42.722Z,25.70
2022-07-27T08:53:13.417Z,25.80
2022-07-27T08:55:44.783Z,25.90
2022-07-27T08:58:13.932Z,26.00
2022-07-27T09:00:48.312Z,26.10
2022-07-27T09:03:20.114Z,26.20
2022-07-27T09:05:55.707Z,26.30
2022-07-27T09:08:30.189Z,26.30
2022-07-27T09:10:59.546Z,26.50
2022-07-27T09:13:32.709Z,26.60
2022-07-27T09:16:22.971Z,26.70
2022-07-27T09:19:06.082Z,26.80
2022-07-27T09:21:35.641Z,27.00
2022-07-27T09:24:23.491Z,27.10
2022-07-27T09:27:05.850Z,27.20
2022-07-27T09:29:36.821Z,27.30
2022-07-27T09:32:17.686Z,27.50
2022-07-27T09:34:45.779Z,27.60
2022-07-27T09:37:25.194Z,27.70
2022-07-27T09:40:11.563Z,27.90
2022-07-27T09:43:08.900Z,28.10
2022-07-27T09:45:35.787Z,28.20
2022-07-27T09:48:17.710Z,28.50
2022-07-27T09:51:02.562Z,28.70
2022-07-27T09:53:43.854Z,28.90
2022-07-27T09:56:16.137Z,29.10
2022-07-27T09:58:53.806Z,29.20
2022-07-27T10:01:25.336Z,29.40
2022-07-27T10:04:00.469Z,29.50
2022-07-27T10:06:29.166Z,29.70
2022-07-27T10:08:58.324Z,29.80
2022-07-27T10:11:26.819Z,29.90
2022-07-27T10:13:56.765Z,30.00
2022-07-27T10:16:28.880Z,30.10
2022-07-27T10:19:14.689Z,30.20
2022-07-27T10:21:47.448Z,30.40
2022-07-27T10:24:36.900Z,30.50
2022-07-27T10:27:21.345Z,30.70
2022-07-27T10:29:50.370Z,30.80
2022-07-27T10:32:31.193Z,30.90
2022-07-27T10:35:01.233Z,31.10
2022-07-27T10:37:34.314Z,31.20
2022-07-27T10:40:26.856Z,31.20
2022-07-27T10:43:29.606Z,31.40
2022-07-27T10:46:01.838Z,31.50
2022-07-27T10:48:48.290Z,31.40
2022-07-27T10:51:17.682Z,31.40
2022-07-27T10:56:48.024Z,31.20
2022-07-27T10:59:15.882Z,31.00
2022-07-27T11:02:03.447Z,30.90
2022-07-27T11:04:32.345Z,30.80
2022-07-27T11:10:07.615Z,30.60
2022-07-27T11:12:36.746Z,30.50
2022-07-27T11:15:04.908Z,30.40
2022-07-27T11:17:54.165Z,30.30
2022-07-27T11:20:24.140Z,30.20
2022-07-27T11:25:39.096Z,30.00
2022-07-27T11:28:09.900Z,29.90
2022-07-27T11:30:37.370Z,29.70
2022-07-27T11:33:05.225Z,29.60
2022-07-27T11:35:32.471Z,29.60
2022-07-27T11:38:06.631Z,29.60
2022-07-27T11:40:57.357Z,29.60
2022-07-27T11:43:38.975Z,29.60
2022-07-27T11:46:19.716Z,29.60
2022-07-27T11:49:10.176Z,29.70
2022-07-27T11:51:49.442Z,29.80
2022-07-27T11:54:27.832Z,29.90
2022-07-27T11:57:02.470Z,30.00
2022-07-27T11:59:42.625Z,30.10
2022-07-27T12:02:18.001Z,30.30
2022-07-27T12:04:48.690Z,30.50
2022-07-27T12:07:18.814Z,30.70
2022-07-27T12:09:55.981Z,30.80
2022-07-27T12:12:28.456Z,30.90
2022-07-27T12:14:58.765Z,31.10
2022-07-27T12:17:32.884Z,31.30
2022-07-27T12:20:11.500Z,31.30
2022-07-27T12:22:44.347Z,31.40
2022-07-27T12:25:29.689Z,31.50
2022-07-27T12:28:07.353Z,31.70
2022-07-27T12:30:47.233Z,31.90
2022-07-27T12:33:37.693Z,32.40
2022-07-27T12:36:08.862Z,32.90
2022-07-27T12:38:50.340Z,33.40
2022-07-27T12:41:35.562Z,34.10
2022-07-27T12:44:18.228Z,34.80
2022-07-27T12:47:27.626Z,35.40
2022-07-27T12:50:07.885Z,36.00
2022-07-27T12:52:38.849Z,36.70
2022-07-27T12:55:10.628Z,37.20
2022-07-27T12:57:55.352Z,37.80
2022-07-27T13:00:33.646Z,38.40
2022-07-27T13:03:03.174Z,39.00
2022-07-27T13:05:31.621Z,39.50
2022-07-27T13:07:59.777Z,40.00
2022-07-27T13:10:27.739Z,40.50
2022-07-27T13:12:55.143Z,41.00
2022-07-27T13:15:22.373Z,41.50
2022-07-27T13:17:50.480Z,42.10
2022-07-27T13:20:18.006Z,42.60
2022-07-27T13:22:47.314Z,43.00
2022-07-27T13:25:17.289Z,43.40
2022-07-27T13:27:47.641Z,43.60
2022-07-27T13:30:17.113Z,43.70
2022-07-27T13:32:48.748Z,43.80
2022-07-27T13:35:17.224Z,43.70
2022-07-27T13:37:45.466Z,43.40
2022-07-27T13:40:13.706Z,42.90
2022-07-27T13:42:40.951Z,42.30
2022-07-27T13:45:10.999Z,41.50
2022-07-27T13:47:40.753Z,40.70
2022-07-27T13:50:17.206Z,39.70
2022-07-27T13:52:47.219Z,38.90
2022-07-27T13:55:16.403Z,38.10
2022-07-27T13:57:45.396Z,37.40
2022-07-27T14:00:13.562Z,36.80
2022-07-27T14:02:42.001Z,36.30
2022-07-27T14:05:14.130Z,35.80
2022-07-27T14:07:43.687Z,35.40
2022-07-27T14:10:31.492Z,35.00
2022-07-27T14:13:08.204Z,34.60
2022-07-27T14:15:50.446Z,34.20
2022-07-27T14:18:23.761Z,33.90
2022-07-27T14:20:51.289Z,33.80
2022-07-27T14:23:18.717Z,33.70
2022-07-27T14:25:47.030Z,33.80
2022-07-27T14:28:14.273Z,34.00
2022-07-27T14:30:41.366Z,34.40
2022-07-27T14:33:08.560Z,34.80
2022-07-27T14:35:40.240Z,35.30
2022-07-27T14:38:09.486Z,35.50
2022-07-27T14:40:38.041Z,35.60
2022-07-27T14:43:06.525Z,35.50
2022-07-27T14:45:44.780Z,35.40
2022-07-27T14:48:23.089Z,35.10
2022-07-27T14:50:55.859Z,34.70
2022-07-27T14:53:23.184Z,34.40
2022-07-27T14:55:50.425Z,34.00
2022-07-27T14:58:17.637Z,33.70
2022-07-27T15:00:45.111Z,33.40
2022-07-27T15:03:14.676Z,33.10
2022-07-27T15:05:50.533Z,32.80
2022-07-27T15:08:20.258Z,32.50
2022-07-27T15:10:49.875Z,32.20
2022-07-27T15:13:18.080Z,31.90
2022-07-27T15:15:48.367Z,31.60
2022-07-27T15:18:18.835Z,31.50
2022-07-27T15:20:49.365Z,31.20
2022-07-27T15:23:17.406Z,31.10
2022-07-27T15:25:44.933Z,31.00
2022-07-27T15:28:12.343Z,31.00
2022-07-27T15:30:39.912Z,30.90
2022-07-27T15:33:07.443Z,30.80
2022-07-27T15:35:34.743Z,30.80
2022-07-27T15:38:02.057Z,30.90
2022-07-27T15:40:38.230Z,31.20
2022-07-27T15:43:12.337Z,31.70
2022-07-27T15:45:48.502Z,32.40
2022-07-27T15:48:19.443Z,33.20
2022-07-27T15:50:50.861Z,34.00
2022-07-27T15:53:20.874Z,34.70
2022-07-27T15:55:49.285Z,35.40
2022-07-27T15:58:19.512Z,35.90
2022-07-27T16:00:53.295Z,36.30
2022-07-27T16:03:25.510Z,36.60
2022-07-27T16:05:53.524Z,36.60
2022-07-27T16:08:22.827Z,36.40
2022-07-27T16:10:50.091Z,36.10
2022-07-27T16:13:17.404Z,35.70
2022-07-27T16:16:03.972Z,35.20
2022-07-27T16:18:35.329Z,34.80
2022-07-27T16:21:05.567Z,34.20
2022-07-27T16:23:32.945Z,33.70
2022-07-27T16:26:04.490Z,33.20
2022-07-27T16:28:42.369Z,32.80
2022-07-27T16:31:13.952Z,32.30
2022-07-27T16:33:44.517Z,31.90
2022-07-27T16:36:12.410Z,31.50
2022-07-27T16:38:49.556Z,31.00
2022-07-27T16:41:22.359Z,30.70
2022-07-27T16:43:50.104Z,30.40
2022-07-27T16:46:17.983Z,30.00
2022-07-27T16:48:45.467Z,29.70
2022-07-27T16:51:14.360Z,29.40
2022-07-27T16:53:44.563Z,29.00
2022-07-27T16:56:12.307Z,28.70
2022-07-27T16:58:39.631Z,28.50
2022-07-27T17:01:08.269Z,28.30
2022-07-27T17:03:35.880Z,28.20
2022-07-27T17:06:06.387Z,28.10
2022-07-27T17:08:36.188Z,28.00
2022-07-27T17:11:06.076Z,27.90
2022-07-27T17:13:34.649Z,27.80
2022-07-27T17:16:04.379Z,27.70
2022-07-27T17:18:38.945Z,27.60
2022-07-27T17:21:07.748Z,27.50
2022-07-27T17:23:38.329Z,27.40
2022-07-27T17:26:08.773Z,27.20
2022-07-27T17:28:39.377Z,27.10
2022-07-27T17:31:12.285Z,27.00
2022-07-27T17:33:41.361Z,26.80
2022-07-27T17:36:14.598Z,26.70
2022-07-27T17:38:47.757Z,26.50
2022-07-27T17:41:23.534Z,26.40
2022-07-27T17:43:52.038Z,26.30
2022-07-27T17:46:19.721Z,26.10
2022-07-27T17:48:47.172Z,26.00
2022-07-27T17:51:14.702Z,25.90
2022-07-27T17:53:41.776Z,25.70
2022-07-27T17:56:11.086Z,25.60
2022-07-27T17:58:38.932Z,25.50
2022-07-27T18:01:07.099Z,25.30
2022-07-27T18:03:35.217Z,25.10
2022-07-27T18:06:02.676Z,24.90
2022-07-27T18:08:30.080Z,24.80
2022-07-27T18:10:57.347Z,24.60
2022-07-27T18:13:39.222Z,24.50
2022-07-27T18:16:11.984Z,24.40
2022-07-27T18:18:42.773Z,24.20
2022-07-27T18:21:11.445Z,24.20
2022-07-27T18:23:39.568Z,24.00
2022-07-27T18:26:07.844Z,23.90
2022-07-27T18:28:39.543Z,23.80
2022-07-27T18:31:08.136Z,23.70
2022-07-27T18:33:37.019Z,23.60
2022-07-27T18:36:06.507Z,23.60
2022-07-27T18:38:33.632Z,23.50
2022-07-27T18:41:00.677Z,23.40
2022-07-27T18:43:27.836Z,23.30
2022-07-27T18:45:55.285Z,23.20
2022-07-27T18:48:22.605Z,23.10
2022-07-27T18:50:49.836Z,22.90
2022-07-27T18:53:17.252Z,22.90
2022-07-27T18:55:45.014Z,22.80
2022-07-27T18:58:12.155Z,22.60
2022-07-27T19:00:39.104Z,22.50
2022-07-27T19:03:06.386Z,22.40
2022-07-27T19:05:41.355Z,22.30
2022-07-27T19:08:13.508Z,22.20
2022-07-27T19:10:45.279Z,22.10
2022-07-27T19:13:13.572Z,21.90
2022-07-27T19:15:41.490Z,21.80
2022-07-27T19:18:09.030Z,21.70
2022-07-27T19:20:37.839Z,21.50
2022-07-27T19:23:08.081Z,21.40
2022-07-27T19:25:35.606Z,21.30
2022-07-27T19:28:04.308Z,21.10
2022-07-27T19:30:31.680Z,21.00
2022-07-27T19:32:59.530Z,20.80
2022-07-27T19:35:27.591Z,20.70
2022-07-27T19:37:54.930Z,20.60
2022-07-27T19:43:10.561Z,20.30
2022-07-27T19:45:41.184Z,20.20
2022-07-27T19:48:11.858Z,20.20
2022-07-27T19:50:39.663Z,20.10
2022-07-27T19:53:06.888Z,20.00
2022-07-27T19:55:34.723Z,20.00
2022-07-27T19:58:01.933Z,19.90
2022-07-27T20:00:29.155Z,19.80
2022-07-27T20:02:57.661Z,19.80
2022-07-27T20:05:24.846Z,19.70
2022-07-27T20:07:52.935Z,19.60
2022-07-27T20:10:21.820Z,19.60
2022-07-27T20:12:48.784Z,19.60
2022-07-27T20:15:16.085Z,19.50
2022-07-27T20:17:43.958Z,19.50
2022-07-27T20:20:12.793Z,19.40
2022-07-27T20:22:40.905Z,19.40
2022-07-27T20:25:11.799Z,19.30
2022-07-27T20:27:39.417Z,19.30
2022-07-27T20:30:09.011Z,19.30
2022-07-27T20:32:36.529Z,19.20
2022-07-27T20:35:04.983Z,19.20
2022-07-27T20:37:32.640Z,19.20
2022-07-27T20:39:59.685Z,19.10
2022-07-27T20:42:27.500Z,19.10
2022-07-27T20:44:55.138Z,19.10
2022-07-27T20:47:22.586Z,19.10
2022-07-27T20:49:49.731Z,19.00
2022-07-27T20:52:17.065Z,19.00
2022-07-27T20:54:44.378Z,19.10
2022-07-27T20:57:11.693Z,19.00
2022-07-27T20:59:39.135Z,19.00
2022-07-27T21:02:07.668Z,18.90
2022-07-27T21:04:35.504Z,18.90
2022-07-27T21:07:02.530Z,18.90
2022-07-27T21:09:31.489Z,18.90
2022-07-27T21:11:58.844Z,18.90
2022-07-27T21:14:26.190Z,18.80
2022-07-27T21:16:53.439Z,18.80
2022-07-27T21:19:22.395Z,18.80
2022-07-27T21:21:49.693Z,18.80
2022-07-27T21:24:17.557Z,18.70
2022-07-27T21:26:50.807Z,18.70
2022-07-27T21:29:19.717Z,18.70
2022-07-27T21:31:49.480Z,18.60
2022-07-27T21:34:20.435Z,18.60
2022-07-27T21:36:48.496Z,18.60
2022-07-27T21:39:16.212Z,18.60
2022-07-27T21:41:43.494Z,18.60
2022-07-27T21:44:11.418Z,18.50
2022-07-27T21:46:38.721Z,18.50
2022-07-27T21:49:06.210Z,18.50
2022-07-27T21:51:33.556Z,18.50
2022-07-27T21:54:00.975Z,18.50
2022-07-27T21:56:28.743Z,18.50
2022-07-27T21:58:55.844Z,18.40
2022-07-27T22:01:23.325Z,18.40
2022-07-27T22:03:50.786Z,18.40
2022-07-27T22:06:18.313Z,18.30
2022-07-27T22:08:46.216Z,18.30
2022-07-27T22:11:13.832Z,18.30
2022-07-27T22:13:41.170Z,18.30
2022-07-27T22:16:09.087Z,18.30
2022-07-27T22:18:36.327Z,18.30
2022-07-27T22:21:03.391Z,18.20
2022-07-27T22:23:30.499Z,18.20
2022-07-27T22:25:58.040Z,18.20
2022-07-27T22:28:26.150Z,18.10
2022-07-27T22:31:16.506Z,18.10
2022-07-27T22:33:44.422Z,18.10
2022-07-27T22:36:12.403Z,18.10
2022-07-27T22:38:39.705Z,17.90
2022-07-27T22:41:08.041Z,17.90
2022-07-27T22:43:35.779Z,17.90
2022-07-27T22:46:04.888Z,17.80
2022-07-27T22:48:32.764Z,17.70
2022-07-27T22:50:59.962Z,17.70
2022-07-27T22:53:27.086Z,17.60
2022-07-27T22:55:54.280Z,17.50
2022-07-27T22:58:21.925Z,17.50
2022-07-27T23:00:49.481Z,17.50
2022-07-27T23:03:16.806Z,17.40
2022-07-27T23:05:43.919Z,17.40
2022-07-27T23:08:11.249Z,17.40
2022-07-27T23:10:47.584Z,17.30
2022-07-27T23:13:19.894Z,17.30
2022-07-27T23:15:47.542Z,17.30
2022-07-27T23:18:16.710Z,17.30
2022-07-27T23:20:44.786Z,17.30
2022-07-27T23:23:16.624Z,17.30
2022-07-27T23:25:49.892Z,17.30
2022-07-27T23:28:17.363Z,17.30
2022-07-27T23:30:44.701Z,17.30
2022-07-27T23:33:12.296Z,17.20
2022-07-27T23:35:39.510Z,17.20
2022-07-27T23:38:06.732Z,17.20
2022-07-27T23:40:33.879Z,17.10
2022-07-27T23:43:00.971Z,17.20
2022-07-27T23:45:28.415Z,17.10
2022-07-27T23:47:55.728Z,17.10
2022-07-27T23:50:23.157Z,17.00
2022-07-27T23:52:50.587Z,17.10
2022-07-27T23:55:17.888Z,17.10
2022-07-27T23:57:44.936Z,17.00
